ADDS METAR Data INFO
IDs: Format: Raw Decoded Include TAF

Data at: 1045 UTC 18 Aug 2017

KPVW 181035Z AUTO 00000KT 10SM CLR 18/17 A3006 RMK AO2 T01830172
KPVW 181015Z AUTO 25005KT 10SM CLR 19/18 A3006 RMK AO2 T01860175 TSNO
KPVW 180955Z AUTO 22003KT 10SM CLR 19/18 A3006 RMK AO2 T01900177
KPVW 180935Z AUTO 20005KT 10SM CLR 19/18 A3006 RMK AO2 T01900178
KPVW 180915Z AUTO 23006KT 10SM CLR 19/18 A3006 RMK AO2 T01910178
KPVW 180855Z AUTO 20003KT 10SM CLR 19/18 A3007 RMK AO2 T01940180 TSNO
KPVW 180835Z AUTO 22005KT 10SM CLR 20/18 A3007 RMK AO2 T01950180
KPVW 180815Z AUTO 22007KT 10SM CLR 20/18 A3007 RMK AO2 T01950179
KPVW 180755Z AUTO 21006KT 10SM CLR 19/18 A3007 RMK AO2 T01920177
KPVW 180735Z AUTO 20005KT 10SM CLR 19/18 A3008 RMK AO2 LTG DSNT NE T01880176
KPVW 180715Z AUTO 19004KT 10SM CLR 19/18 A3009 RMK AO2 T01920177
KPVW 180655Z AUTO 21006KT 10SM CLR 20/18 A3009 RMK AO2 T01980177
KPVW 180635Z AUTO 20006KT 10SM CLR 20/18 A3009 RMK AO2 T02010177
KPVW 180615Z AUTO 20007KT 10SM CLR 20/18 A3010 RMK AO2 T02030177
KPVW 180555Z AUTO 20008KT 10SM CLR 21/18 A3010 RMK AO2 T02050177 10297 20203 403050175
KPVW 180535Z AUTO 19008KT 10SM CLR 21/18 A3010 RMK AO2 T02100179
KPVW 180515Z AUTO 18010KT 10SM CLR 21/18 A3011 RMK AO2 T02100179
KPVW 180455Z AUTO 19007KT 10SM CLR 21/18 A3011 RMK AO2 T02100180
KPVW 180435Z AUTO 19007KT 10SM CLR 21/18 A3012 RMK AO2 T02050177
KPVW 180415Z AUTO 16006KT 10SM CLR 21/18 A3013 RMK AO2 T02100177
KPVW 180355Z AUTO 17006KT 10SM CLR 21/18 A3012 RMK AO2 T02080176
KPVW 180335Z AUTO 18007KT 10SM CLR 22/17 A3012 RMK AO2 T02150174
KPVW 180315Z AUTO 17006KT 10SM CLR 22/17 A3011 RMK AO2 T02200171
KPVW 180255Z AUTO 17010KT 10SM CLR 23/17 A3010 RMK AO2 T02290168
KPVW 180235Z AUTO 17010G15KT 10SM CLR 22/17 A3009 RMK AO2 T02230170
KPVW 180215Z AUTO 14006KT 10SM CLR 23/17 A3007 RMK AO2 T02300170
KPVW 180155Z AUTO 14006KT 10SM CLR 24/17 A3006 RMK AO2 T02350170 TSNO
KPVW 180135Z AUTO 16007KT 10SM CLR 25/17 A3006 RMK AO2 T02530165
KPVW 180115Z AUTO 15008KT 10SM CLR 26/18 A3007 RMK AO2 LTG DSNT N T02620175
KPVW 180055Z AUTO 14008KT 10SM CLR 27/18 A3006 RMK AO2 T02730181
KPVW 180035Z AUTO 14005KT 10SM CLR 29/19 A3005 RMK AO2 T02880194
KPVW 180015Z AUTO 15006KT 10SM CLR 29/19 A3005 RMK AO2 T02930190
KPVW 172355Z AUTO 15007KT 10SM CLR 30/19 A3005 RMK AO2 T02990185 10305 20283
KPVW 172335Z AUTO 15006KT 10SM CLR 30/19 A3005 RMK AO2 T03000185
KPVW 172315Z AUTO 14007KT 10SM CLR 30/19 A3005 RMK AO2 T02980189
KPVW 172255Z AUTO 15006KT 10SM CLR 30/19 A3006 RMK AO2 T03040192
KPVW 172235Z AUTO 15006KT 10SM CLR 31/20 A3006 RMK AO2 T03050197
KPVW 172215Z AUTO 14007KT 10SM CLR 30/20 A3006 RMK AO2 T03040197
KPVW 172155Z AUTO 16006KT 10SM CLR 30/19 A3007 RMK AO2 T03010194
KPVW 172135Z AUTO 15007KT 10SM CLR 30/20 A3008 RMK AO2 T03010199
KPVW 172115Z AUTO 16007KT 10SM SCT044 30/20 A3008 RMK AO2 T02990196
KPVW 172050Z AUTO 17008KT 10SM SCT043 30/20 A3010 RMK AO2 T03010202
KPVW 172035Z AUTO 19007KT 10SM CLR 30/20 A3010 RMK AO2 T02950195
KPVW 172015Z AUTO 19005KT 10SM SCT042 30/20 A3011 RMK AO2 T02980201
KPVW 171955Z AUTO 13006KT 10SM SCT042 29/20 A3011 RMK AO2 T02940197
KPVW 171935Z AUTO 16008KT 10SM CLR 29/19 A3012 RMK AO2 T02920194 TSNO
KPVW 171915Z AUTO 16005KT 10SM CLR 29/20 A3013 RMK AO2 T02930195
KPVW 171855Z AUTO 12005KT 10SM CLR 29/19 A3013 RMK AO2 T02910192
KPVW 171835Z AUTO 13009KT 090V150 10SM SCT043 29/19 A3013 RMK AO2 T02880189
KPVW 171815Z AUTO 14006KT 10SM CLR 29/19 A3013 RMK AO2 T02860187
KPVW 171755Z AUTO 19005KT 10SM CLR 29/19 A3014 RMK AO2 T02880191 10288 20182
KPVW 171735Z AUTO 21005KT 10SM CLR 28/18 A3014 RMK AO2 T02810184
KPVW 171715Z AUTO 15005KT 10SM CLR 28/18 A3015 RMK AO2 T02810182
KPVW 171655Z AUTO 14007KT 10SM CLR 28/18 A3015 RMK AO2 T02800181
KPVW 171635Z AUTO 15006KT 10SM CLR 28/18 A3014 RMK AO2 T02780178
KPVW 171615Z AUTO 14009KT 10SM CLR 27/18 A3014 RMK AO2 T02740175
KPVW 171555Z AUTO 12008KT 10SM CLR 27/18 A3013 RMK AO2 T02700182
KPVW 171535Z AUTO 13006KT 10SM CLR 26/18 A3013 RMK AO2 T02620178
KPVW 171515Z AUTO 12008KT 10SM CLR 26/18 A3013 RMK AO2 T02560177
KPVW 171455Z AUTO 11008KT 10SM CLR 25/19 A3013 RMK AO2 T02480187 TSNO
KPVW 171435Z AUTO 11005KT 10SM CLR 24/19 A3013 RMK AO2 T02390191
KPVW 171415Z AUTO 11006KT 10SM CLR 23/19 A3013 RMK AO2 T02300187
KPVW 171355Z AUTO 11004KT 10SM CLR 22/18 A3013 RMK AO2 T02200180
KPVW 171335Z AUTO 09004KT 10SM CLR 21/18 A3012 RMK AO2 T02100178
KPVW 171315Z AUTO 09003KT 10SM CLR 20/18 A3012 RMK AO2 T02010179
KPVW 171255Z AUTO 07003KT 10SM CLR 19/17 A3012 RMK AO2 T01910165
KPVW 171235Z AUTO 00000KT 10SM CLR 19/16 A3011 RMK AO2 T01890159
KPVW 171215Z AUTO 07004KT 10SM CLR 19/16 A3011 RMK AO2 T01850158
KPVW 171155Z AUTO 08004KT 10SM CLR 19/16 A3010 RMK AO2 T01850158 10206 20175
KPVW 171135Z AUTO 07003KT 10SM CLR 18/16 A3010 RMK AO2 T01830158
KPVW 171115Z AUTO 00000KT 10SM CLR 19/16 A3010 RMK AO2 T01890160
KPVW 171055Z AUTO 00000KT 10SM CLR 18/16 A3010 RMK AO2 T01800161
KPVW 171035Z AUTO 00000KT 10SM CLR 19/16 A3010 RMK AO2 T01900163
KPVW 171015Z AUTO 00000KT 10SM CLR 18/17 A3010 RMK AO2 T01820165
KPVW 170955Z AUTO 00000KT 10SM CLR 18/16 A3010 RMK AO2 T01800161
KPVW 170935Z AUTO 00000KT 10SM CLR 18/16 A3009 RMK AO2 T01830161
KPVW 170915Z AUTO 00000KT 10SM CLR 18/16 A3009 RMK AO2 T01810161
KPVW 170855Z AUTO 00000KT 10SM CLR 19/17 A3008 RMK AO2 T01880165
KPVW 170835Z AUTO 00000KT 10SM CLR 18/16 A3008 RMK AO2 T01790163
KPVW 170815Z AUTO 00000KT 10SM CLR 18/17 A3008 RMK AO2 T01830166
KPVW 170755Z AUTO 16003KT 10SM CLR 18/17 A3008 RMK AO2 T01780167
KPVW 170735Z AUTO 17003KT 10SM CLR 18/17 A3008 RMK AO2 T01800166
KPVW 170715Z AUTO 16006KT 10SM CLR 19/16 A3006 RMK AO2 T01860163
KPVW 170655Z AUTO 00000KT 10SM CLR 19/16 A3005 RMK AO2 T01930160
KPVW 170635Z AUTO 02003KT 10SM CLR 19/17 A3006 RMK AO2 T01920166
KPVW 170615Z AUTO 00000KT 10SM CLR 20/17 A3006 RMK AO2 T02040170
KPVW 170555Z AUTO 09003KT 10SM CLR 20/17 A3006 RMK AO2 T02040169 10290 20199 402980190
KPVW 170535Z AUTO 09003KT 10SM CLR 21/17 A3006 RMK AO2 T02090165
KPVW 170515Z AUTO 04006KT 10SM CLR 22/17 A3006 RMK AO2 T02160167
KPVW 170455Z AUTO 04005KT 10SM CLR 21/17 A3005 RMK AO2 T02100167
KPVW 170435Z AUTO 04006KT 10SM CLR 21/17 A3005 RMK AO2 T02070166
KPVW 170415Z AUTO 01005KT 10SM CLR 22/17 A3004 RMK AO2 LTG DSNT S T02190169
KPVW 170355Z AUTO 36003KT 10SM CLR 23/18 A3004 RMK AO2 T02260175
KPVW 170335Z AUTO 00000KT 10SM CLR 22/18 A3004 RMK AO2 T02200177
KPVW 170315Z AUTO 00000KT 10SM CLR 22/18 A3002 RMK AO2 T02230180
KPVW 170255Z AUTO 34003KT 10SM CLR 22/18 A3001 RMK AO2 T02240176
KPVW 170235Z AUTO 33005KT 10SM CLR 23/18 A3000 RMK AO2 T02300175
KPVW 170215Z AUTO 33004KT 10SM CLR 23/18 A3001 RMK AO2 T02320179
KPVW 170155Z AUTO 32004KT 10SM CLR 25/18 A3000 RMK AO2 T02450178
KPVW 170135Z AUTO 32004KT 10SM CLR 25/18 A3000 RMK AO2 T02500180
KPVW 170115Z AUTO 32004KT 10SM CLR 26/18 A3000 RMK AO2 LTG DSNT E T02590180
KPVW 170055Z AUTO 32003KT 10SM CLR 27/17 A2999 RMK AO2 T02740174
KPVW 170035Z AUTO 32003KT 10SM CLR 28/17 A2999 RMK AO2 T02840167
KPVW 170015Z AUTO 00000KT 10SM CLR 29/15 A2999 RMK AO2 T02880149
KPVW 162355Z AUTO 32003KT 10SM CLR 29/15 A2999 RMK AO2 T02900151 10298 20274
KPVW 162335Z AUTO 34006KT 10SM CLR 29/15 A2998 RMK AO2 T02910149
KPVW 162315Z AUTO 31007KT 10SM CLR 29/15 A2998 RMK AO2 T02920148
KPVW 162255Z AUTO 31008KT 10SM CLR 30/15 A2998 RMK AO2 T02950147